Time;durP1;ratioP1;P1;durP2;ratioP2;P2;SDS_P1;SDS_P2;PMS_P1;PMS_P2;Temp;Humidity;BMP_temperature;BMP_pressure;BME280_temperature;BME280_humidity;BME280_pressure;Samples;Min_cycle;Max_cycle;Signal;HPM_P1;HPM_P2
2022/01/09 00:00:47;;;;;;;65.85;36.15;;;;;;;;;;5092053;28;20498;-72
2022/01/09 00:03:51;;;;;;;61.58;37.22;;;;;;;;;;5093316;28;20043;-72
2022/01/09 00:06:55;;;;;;;55.08;32.80;;;;;;;;;;5092075;28;20043;-72
2022/01/09 00:10:00;;;;;;;56.17;34.45;;;;;;;;;;5079027;28;20043;-72
2022/01/09 00:13:05;;;;;;;53.42;32.38;;;;;;;;;;5091803;28;20043;-71
2022/01/09 00:16:09;;;;;;;49.75;30.77;;;;;;;;;;5078942;28;20396;-71
2022/01/09 00:19:13;;;;;;;48.92;31.10;;;;;;;;;;5092039;28;20061;-70
2022/01/09 00:22:23;;;;;;;55.58;33.17;;;;;;;;;;5091909;28;20494;-70
2022/01/09 00:25:28;;;;;;;53.72;33.80;;;;;;;;;;5091567;28;20061;-70
2022/01/09 00:28:32;;;;;;;54.60;34.05;;;;;;;;;;5079462;28;20055;-71
2022/01/09 00:31:37;;;;;;;57.72;34.00;;;;;;;;;;5091895;28;20039;-71
2022/01/09 00:34:42;;;;;;;60.35;33.13;;;;;;;;;;5079334;28;20510;-71
2022/01/09 00:37:46;;;;;;;58.75;34.03;;;;;;;;;;5079284;28;20051;-71
2022/01/09 00:40:50;;;;;;;139.27;37.72;;;;;;;;;;5092300;28;20051;-71
2022/01/09 00:43:55;;;;;;;63.67;33.28;;;;;;;;;;5091789;28;20051;-71
2022/01/09 00:47:00;;;;;;;58.45;34.10;;;;;;;;;;5079104;28;20051;-71
2022/01/09 00:50:04;;;;;;;59.08;33.55;;;;;;;;;;5092997;28;20043;-70
2022/01/09 00:53:09;;;;;;;59.30;34.25;;;;;;;;;;5095787;28;20055;-71
2022/01/09 00:56:13;;;;;;;56.60;32.38;;;;;;;;;;5095313;28;20059;-71
2022/01/09 00:59:17;;;;;;;54.13;32.35;;;;;;;;;;5083636;28;20043;-71
2022/01/09 01:02:22;;;;;;;52.00;30.85;;;;;;;;;;5095770;28;20067;-71
2022/01/09 01:05:26;;;;;;;54.25;32.88;;;;;;;;;;5095683;28;20039;-71
2022/01/09 01:08:31;;;;;;;54.45;32.85;;;;;;;;;;5083144;28;20047;-71
2022/01/09 01:11:35;;;;;;;46.65;29.92;;;;;;;;;;5071714;28;20044;-71
2022/01/09 01:14:39;;;;;;;59.80;31.33;;;;;;;;;;5095712;28;20039;-71
2022/01/09 01:17:45;;;;;;;69.43;31.75;;;;;;;;;;5082790;28;20059;-70
2022/01/09 01:20:49;;;;;;;67.85;30.65;;;;;;;;;;5095287;28;20043;-71
2022/01/09 01:23:53;;;;;;;51.80;29.75;;;;;;;;;;5082469;28;20051;-71
2022/01/09 01:26:57;;;;;;;53.55;31.00;;;;;;;;;;5095316;28;20490;-71
2022/01/09 01:30:03;;;;;;;53.70;31.02;;;;;;;;;;5082622;28;20062;-72
2022/01/09 01:33:07;;;;;;;52.63;30.70;;;;;;;;;;5094931;28;20039;-71
2022/01/09 01:36:11;;;;;;;50.80;29.40;;;;;;;;;;5095010;28;20035;-72
2022/01/09 01:39:15;;;;;;;53.17;30.13;;;;;;;;;;5094627;28;20054;-72
2022/01/09 01:42:20;;;;;;;54.25;31.48;;;;;;;;;;5094867;28;20035;-71
2022/01/09 01:45:24;;;;;;;52.60;32.00;;;;;;;;;;5082067;28;20066;-71
2022/01/09 01:48:29;;;;;;;54.15;31.40;;;;;;;;;;5070345;28;20502;-71
2022/01/09 01:51:34;;;;;;;51.85;30.90;;;;;;;;;;5094248;28;20043;-71
2022/01/09 01:54:42;;;;;;;53.35;33.13;;;;;;;;;;5094454;28;20051;-71
2022/01/09 01:57:46;;;;;;;62.35;35.50;;;;;;;;;;5081686;28;20055;-71
2022/01/09 02:00:50;;;;;;;66.22;38.45;;;;;;;;;;5093544;28;20035;-71
2022/01/09 02:03:54;;;;;;;68.40;40.53;;;;;;;;;;5069697;28;20047;-71
2022/01/09 02:07:01;;;;;;;68.15;40.65;;;;;;;;;;5094332;28;20106;-71
2022/01/09 02:10:08;;;;;;;72.35;41.28;;;;;;;;;;5081546;28;20047;-71
2022/01/09 02:13:12;;;;;;;66.88;42.30;;;;;;;;;;5094005;28;20047;-70
2022/01/09 02:16:18;;;;;;;76.13;41.08;;;;;;;;;;5070946;28;20055;-70
2022/01/09 02:19:23;;;;;;;68.28;42.80;;;;;;;;;;5070477;28;20043;-70
2022/01/09 02:22:31;;;;;;;65.05;40.30;;;;;;;;;;5094549;28;20042;-70
2022/01/09 02:25:36;;;;;;;85.45;51.63;;;;;;;;;;5094218;28;20482;-71
2022/01/09 02:28:40;;;;;;;69.05;40.03;;;;;;;;;;5093503;28;20043;-70
2022/01/09 02:31:45;;;;;;;66.15;40.22;;;;;;;;;;5081175;28;20043;-71
2022/01/09 02:34:50;;;;;;;67.07;39.92;;;;;;;;;;5092968;28;20055;-70
2022/01/09 02:37:54;;;;;;;67.78;38.63;;;;;;;;;;5093604;28;20401;-71
2022/01/09 02:40:58;;;;;;;68.85;38.85;;;;;;;;;;5093289;28;20039;-71
2022/01/09 02:44:10;;;;;;;65.80;39.10;;;;;;;;;;5093356;28;20039;-71
2022/01/09 02:47:14;;;;;;;;;;;;;;;;;;5093994;28;20043;-71
2022/01/09 02:50:32;;;;;;;62.55;37.85;;;;;;;;;;5093379;28;19922;-71
2022/01/09 02:53:38;;;;;;;60.85;37.80;;;;;;;;;;5093565;28;20158;-70
2022/01/09 02:56:43;;;;;;;75.10;38.05;;;;;;;;;;5080886;28;20541;-71
2022/01/09 02:59:47;;;;;;;69.50;37.80;;;;;;;;;;5093088;28;20031;-70
2022/01/09 03:02:52;;;;;;;70.32;38.80;;;;;;;;;;5093226;28;20047;-70
2022/01/09 03:05:56;;;;;;;65.80;37.30;;;;;;;;;;5080649;28;20043;-72
2022/01/09 03:09:02;;;;;;;67.43;39.45;;;;;;;;;;5069523;28;20047;-70
2022/01/09 03:12:06;;;;;;;63.30;39.25;;;;;;;;;;5092823;28;20522;-71
2022/01/09 03:15:11;;;;;;;71.47;40.75;;;;;;;;;;5092238;28;20039;-71
2022/01/09 03:18:15;;;;;;;63.78;38.85;;;;;;;;;;5080353;28;20043;-71
2022/01/09 03:21:20;;;;;;;62.10;37.88;;;;;;;;;;5092895;28;20514;-72
2022/01/09 03:24:24;;;;;;;62.35;37.45;;;;;;;;;;5080181;28;20046;-71
2022/01/09 03:27:28;;;;;;;60.17;37.30;;;;;;;;;;5093011;28;20039;-71
2022/01/09 03:30:33;;;;;;;67.35;37.05;;;;;;;;;;5092769;28;20051;-69
2022/01/09 03:33:37;;;;;;;64.90;39.33;;;;;;;;;;5079659;28;20519;-71
2022/01/09 03:36:41;;;;;;;63.63;37.88;;;;;;;;;;5092835;28;20059;-71
2022/01/09 03:39:46;;;;;;;64.07;37.90;;;;;;;;;;5068576;28;20039;-71
2022/01/09 03:42:51;;;;;;;62.13;37.90;;;;;;;;;;5092564;28;20645;-71
2022/01/09 03:45:56;;;;;;;61.25;36.60;;;;;;;;;;5092018;28;20051;-71
2022/01/09 03:49:00;;;;;;;53.08;33.13;;;;;;;;;;5092224;28;20045;-71
2022/01/09 03:52:05;;;;;;;58.25;33.47;;;;;;;;;;5080077;28;20510;-71
2022/01/09 03:55:11;;;;;;;51.33;31.90;;;;;;;;;;5092350;28;20039;-71
2022/01/09 03:58:15;;;;;;;59.08;34.00;;;;;;;;;;5092132;28;20051;-71
2022/01/09 04:01:20;;;;;;;52.58;32.63;;;;;;;;;;5092012;28;20054;-71
2022/01/09 04:04:25;;;;;;;50.53;32.15;;;;;;;;;;5079964;28;20438;-71
2022/01/09 04:07:29;;;;;;;55.65;31.80;;;;;;;;;;5079721;28;20490;-72
2022/01/09 04:10:40;;;;;;;49.20;32.28;;;;;;;;;;5079598;28;20050;-71
2022/01/09 04:13:44;;;;;;;47.63;30.92;;;;;;;;;;5091847;28;20041;-72
2022/01/09 04:16:49;;;;;;;57.97;31.25;;;;;;;;;;5091755;28;20055;-71
2022/01/09 04:19:53;;;;;;;54.90;32.88;;;;;;;;;;5091484;28;20050;-71
2022/01/09 04:22:58;;;;;;;60.80;31.75;;;;;;;;;;5091662;28;20051;-71
2022/01/09 04:26:03;;;;;;;50.33;30.35;;;;;;;;;;5078995;28;20047;-71
2022/01/09 04:29:07;;;;;;;49.90;29.38;;;;;;;;;;5079135;28;20031;-72
2022/01/09 04:32:12;;;;;;;41.28;27.27;;;;;;;;;;5091529;28;20039;-71
2022/01/09 04:35:16;;;;;;;43.67;26.63;;;;;;;;;;5091252;28;20066;-71
2022/01/09 04:38:35;;;;;;;45.58;27.40;;;;;;;;;;5109005;27;20144;-70
2022/01/09 04:41:40;;;;;;;45.10;27.77;;;;;;;;;;5096525;28;20040;-71
2022/01/09 04:44:44;;;;;;;43.65;26.27;;;;;;;;;;5109023;28;20372;-71
2022/01/09 04:47:50;;;;;;;41.05;26.17;;;;;;;;;;5108876;28;20040;-71
2022/01/09 04:50:56;;;;;;;46.08;27.38;;;;;;;;;;5109279;28;20040;-70
2022/01/09 04:54:00;;;;;;;44.58;26.98;;;;;;;;;;5096536;28;20039;-71
2022/01/09 04:57:05;;;;;;;49.60;27.33;;;;;;;;;;5096567;28;20404;-71
2022/01/09 05:00:10;;;;;;;49.35;27.45;;;;;;;;;;5109033;28;20486;-71
2022/01/09 05:03:16;;;;;;;45.90;27.45;;;;;;;;;;5109126;28;20036;-71
2022/01/09 05:06:21;;;;;;;45.20;26.92;;;;;;;;;;5108371;28;20042;-71
2022/01/09 05:09:26;;;;;;;49.03;27.52;;;;;;;;;;5108805;28;20047;-71
2022/01/09 05:12:30;;;;;;;44.28;27.33;;;;;;;;;;5108592;28;20027;-71
2022/01/09 05:15:34;;;;;;;51.17;27.17;;;;;;;;;;5108753;28;20499;-70
2022/01/09 05:18:51;;;;;;;54.92;25.92;;;;;;;;;;5109105;28;20059;-71
2022/01/09 05:21:57;;;;;;;58.53;26.25;;;;;;;;;;5108171;28;20387;-71
2022/01/09 05:25:02;;;;;;;41.13;25.52;;;;;;;;;;5108535;28;20048;-71
2022/01/09 05:28:07;;;;;;;41.70;25.63;;;;;;;;;;5108571;28;20044;-71
2022/01/09 05:31:11;;;;;;;40.05;24.42;;;;;;;;;;5108731;28;20393;-70
2022/01/09 05:34:16;;;;;;;42.00;25.35;;;;;;;;;;5108408;28;20506;-71
2022/01/09 05:37:20;;;;;;;40.47;26.42;;;;;;;;;;5108108;28;20514;-71
2022/01/09 05:40:25;;;;;;;49.88;25.85;;;;;;;;;;5108439;28;20040;-71
2022/01/09 05:43:31;;;;;;;42.88;25.27;;;;;;;;;;5108072;28;20028;-71
2022/01/09 05:46:36;;;;;;;39.60;26.23;;;;;;;;;;5108330;28;20031;-71
2022/01/09 05:49:40;;;;;;;39.13;24.40;;;;;;;;;;5096467;28;20040;-71
2022/01/09 05:52:44;;;;;;;39.17;25.67;;;;;;;;;;5094743;28;20047;-71
2022/01/09 05:55:49;;;;;;;48.15;25.58;;;;;;;;;;5082088;28;20051;-70
2022/01/09 05:58:53;;;;;;;42.63;26.42;;;;;;;;;;5082109;28;20053;-71
2022/01/09 06:01:58;;;;;;;34.72;23.42;;;;;;;;;;5094555;28;20036;-71
2022/01/09 06:05:02;;;;;;;42.42;25.38;;;;;;;;;;5094316;28;20039;-71
2022/01/09 06:08:07;;;;;;;38.15;24.60;;;;;;;;;;5094157;28;20044;-71
2022/01/09 06:11:11;;;;;;;41.15;24.48;;;;;;;;;;5094318;28;20040;-71
2022/01/09 06:14:16;;;;;;;45.72;24.00;;;;;;;;;;5094233;28;20040;-71
2022/01/09 06:17:20;;;;;;;41.88;24.05;;;;;;;;;;5093796;28;20044;-71
2022/01/09 06:20:24;;;;;;;37.17;24.55;;;;;;;;;;5094069;28;20036;-71
2022/01/09 06:23:29;;;;;;;46.97;24.30;;;;;;;;;;5094941;28;20036;-71
2022/01/09 06:26:33;;;;;;;39.88;23.73;;;;;;;;;;5095077;28;20044;-71
2022/01/09 06:29:37;;;;;;;41.28;25.02;;;;;;;;;;5094845;28;20047;-70
2022/01/09 06:32:42;;;;;;;40.20;24.08;;;;;;;;;;5094938;28;20032;-71
2022/01/09 06:35:46;;;;;;;41.13;24.48;;;;;;;;;;5094381;28;20036;-70
2022/01/09 06:38:51;;;;;;;32.55;19.80;;;;;;;;;;5095070;28;20051;-70
2022/01/09 06:41:56;;;;;;;35.38;20.33;;;;;;;;;;5093546;28;20399;-71
2022/01/09 06:45:00;;;;;;;32.92;20.02;;;;;;;;;;5093014;28;20071;-71
2022/01/09 06:48:04;;;;;;;33.92;19.17;;;;;;;;;;5094132;28;20036;-70
2022/01/09 06:51:10;;;;;;;33.70;20.33;;;;;;;;;;5080860;28;20044;-71
2022/01/09 06:54:14;;;;;;;33.53;19.40;;;;;;;;;;5093271;28;20036;-70
2022/01/09 06:57:19;;;;;;;32.55;19.40;;;;;;;;;;5095234;28;20032;-72
2022/01/09 07:00:24;;;;;;;51.47;29.88;;;;;;;;;;5092930;28;20051;-69
2022/01/09 07:03:28;;;;;;;43.35;24.05;;;;;;;;;;5093766;28;20506;-71
2022/01/09 07:06:34;;;;;;;38.17;22.60;;;;;;;;;;5093102;28;20044;-69
2022/01/09 07:09:39;;;;;;;33.03;19.65;;;;;;;;;;5093139;28;20028;-70
2022/01/09 07:12:44;;;;;;;31.20;19.77;;;;;;;;;;5092581;28;20499;-70
2022/01/09 07:15:49;;;;;;;36.55;20.88;;;;;;;;;;5093012;28;20028;-70
2022/01/09 07:18:53;;;;;;;37.50;22.02;;;;;;;;;;5093206;28;20044;-70
2022/01/09 07:21:57;;;;;;;34.17;18.65;;;;;;;;;;5094201;28;20044;-71
2022/01/09 07:25:02;;;;;;;35.10;19.30;;;;;;;;;;5093858;28;20608;-69
2022/01/09 07:28:07;;;;;;;33.17;17.73;;;;;;;;;;5092840;28;20043;-70
2022/01/09 07:31:11;;;;;;;28.88;16.55;;;;;;;;;;5094444;28;20043;-72
2022/01/09 07:34:16;;;;;;;30.08;17.42;;;;;;;;;;5093617;28;20039;-70
2022/01/09 07:37:20;;;;;;;29.33;16.35;;;;;;;;;;5092056;28;20055;-72
2022/01/09 07:40:25;;;;;;;29.77;16.45;;;;;;;;;;5092613;28;20043;-72
2022/01/09 07:43:29;;;;;;;25.83;17.55;;;;;;;;;;5091974;28;20047;-71
2022/01/09 07:46:34;;;;;;;42.22;22.90;;;;;;;;;;5081562;28;20047;-71
2022/01/09 07:49:38;;;;;;;40.10;24.45;;;;;;;;;;5093253;28;20047;-70
2022/01/09 07:52:43;;;;;;;41.28;22.98;;;;;;;;;;5092428;28;20039;-70
2022/01/09 07:55:47;;;;;;;40.15;22.15;;;;;;;;;;5092362;28;20049;-70
2022/01/09 07:58:52;;;;;;;40.20;22.50;;;;;;;;;;5093748;28;20133;-70
2022/01/09 08:01:56;;;;;;;42.28;21.30;;;;;;;;;;5093100;28;20058;-71
2022/01/09 08:05:01;;;;;;;32.50;19.05;;;;;;;;;;5081423;28;20047;-71
2022/01/09 08:08:06;;;;;;;31.55;19.30;;;;;;;;;;5081213;28;20044;-71
2022/01/09 08:11:10;;;;;;;46.55;25.00;;;;;;;;;;5080436;28;20506;-70
2022/01/09 08:14:15;;;;;;;39.83;21.38;;;;;;;;;;5093346;28;20043;-71
2022/01/09 08:17:20;;;;;;;45.15;23.80;;;;;;;;;;5093446;28;20047;-71
2022/01/09 08:20:26;;;;;;;38.75;21.15;;;;;;;;;;5091623;28;20039;-71
2022/01/09 08:23:31;;;;;;;37.33;22.25;;;;;;;;;;5080844;28;20051;-70
2022/01/09 08:26:35;;;;;;;36.38;23.23;;;;;;;;;;5079703;28;20067;-71
2022/01/09 08:29:39;;;;;;;39.83;22.17;;;;;;;;;;5092503;28;20040;-71
2022/01/09 08:32:44;;;;;;;39.65;22.85;;;;;;;;;;5080930;28;20051;-72
2022/01/09 08:35:48;;;;;;;37.72;22.13;;;;;;;;;;5091561;28;20391;-72
2022/01/09 08:38:53;;;;;;;34.28;20.50;;;;;;;;;;5092033;28;20051;-70
2022/01/09 08:41:57;;;;;;;34.92;21.48;;;;;;;;;;5093346;28;20051;-71
2022/01/09 08:45:02;;;;;;;38.15;21.15;;;;;;;;;;5093097;28;20118;-70
2022/01/09 08:48:07;;;;;;;32.90;20.55;;;;;;;;;;5091916;28;20508;-71
2022/01/09 08:51:11;;;;;;;33.13;19.83;;;;;;;;;;5092871;28;20058;-72
2022/01/09 08:54:15;;;;;;;35.17;19.67;;;;;;;;;;5080472;28;20375;-71
2022/01/09 08:57:20;;;;;;;29.73;19.00;;;;;;;;;;5092679;28;20043;-73
2022/01/09 09:00:28;;;;;;;28.98;18.35;;;;;;;;;;5092725;28;20039;-71
2022/01/09 09:03:34;;;;;;;33.60;20.50;;;;;;;;;;5092181;28;20043;-73
2022/01/09 09:06:38;;;;;;;34.05;19.27;;;;;;;;;;5091675;28;20043;-70
2022/01/09 09:09:42;;;;;;;32.08;17.35;;;;;;;;;;5091645;28;20043;-72
2022/01/09 09:12:47;;;;;;;32.35;18.13;;;;;;;;;;5091118;28;20047;-71
2022/01/09 09:15:52;;;;;;;36.63;19.42;;;;;;;;;;5092965;28;20043;-71
2022/01/09 09:18:57;;;;;;;36.30;20.23;;;;;;;;;;5078897;28;20054;-72
2022/01/09 09:22:01;;;;;;;33.05;20.05;;;;;;;;;;5092331;28;20063;-71
2022/01/09 09:25:06;;;;;;;33.70;19.23;;;;;;;;;;5094431;28;20498;-70
2022/01/09 09:28:10;;;;;;;38.15;20.83;;;;;;;;;;5096512;28;20038;-71
2022/01/09 09:31:15;;;;;;;36.90;21.30;;;;;;;;;;5096557;28;20050;-72
2022/01/09 09:34:19;;;;;;;33.67;20.55;;;;;;;;;;5081980;28;20039;-73
2022/01/09 09:37:26;;;;;;;31.35;20.02;;;;;;;;;;5095837;28;20054;-73
2022/01/09 09:40:30;;;;;;;29.55;18.50;;;;;;;;;;5096723;28;20061;-72
2022/01/09 09:43:35;;;;;;;32.53;19.63;;;;;;;;;;5096213;28;20054;-71
2022/01/09 09:46:40;;;;;;;38.80;22.25;;;;;;;;;;5097277;28;20051;-72
2022/01/09 09:49:46;;;;;;;35.22;22.10;;;;;;;;;;5094630;28;20510;-72
2022/01/09 09:52:51;;;;;;;41.83;24.63;;;;;;;;;;5093630;28;20144;-72
2022/01/09 09:55:56;;;;;;;51.25;31.15;;;;;;;;;;5092681;28;20035;-73
2022/01/09 09:59:01;;;;;;;47.13;28.25;;;;;;;;;;5093361;28;20407;-72
2022/01/09 10:02:08;;;;;;;41.60;25.02;;;;;;;;;;5093696;28;20569;-73
2022/01/09 10:05:14;;;;;;;35.30;21.80;;;;;;;;;;5081052;28;20047;-72
2022/01/09 10:08:19;;;;;;;36.00;21.83;;;;;;;;;;5093052;28;20047;-72
2022/01/09 10:11:23;;;;;;;37.58;21.20;;;;;;;;;;5093389;28;20047;-73
2022/01/09 10:14:32;;;;;;;34.60;21.02;;;;;;;;;;5093023;28;20046;-72
2022/01/09 10:17:41;;;;;;;39.00;21.20;;;;;;;;;;5093139;28;20043;-73
2022/01/09 10:20:45;;;;;;;33.83;20.23;;;;;;;;;;5092482;28;20174;-72
2022/01/09 10:23:59;;;;;;;36.17;20.35;;;;;;;;;;5080286;28;20055;-73
2022/01/09 10:27:04;;;;;;;35.75;19.88;;;;;;;;;;5093237;28;20051;-72
2022/01/09 10:30:08;;;;;;;31.92;17.75;;;;;;;;;;5093007;28;20039;-72
2022/01/09 10:33:17;;;;;;;31.40;17.50;;;;;;;;;;5092639;28;20040;-73
2022/01/09 10:36:39;;;;;;;32.47;18.10;;;;;;;;;;5079263;28;20043;-72
2022/01/09 10:39:44;;;;;;;27.50;16.75;;;;;;;;;;5092852;28;20047;-72
2022/01/09 10:43:05;;;;;;;26.40;15.25;;;;;;;;;;5092309;28;20059;-73
2022/01/09 10:46:09;;;;;;;25.33;13.23;;;;;;;;;;5092432;28;20047;-73
2022/01/09 10:49:13;;;;;;;25.02;12.85;;;;;;;;;;5079615;28;20051;-72
2022/01/09 10:52:30;;;;;;;23.35;12.13;;;;;;;;;;5091989;28;20510;-73
2022/01/09 10:55:34;;;;;;;17.10;9.98;;;;;;;;;;5091370;28;20051;-73
2022/01/09 10:58:40;;;;;;;21.00;9.43;;;;;;;;;;5092027;28;20107;-73
2022/01/09 11:01:45;;;;;;;18.35;10.07;;;;;;;;;;5092219;28;20032;-73
2022/01/09 11:04:49;;;;;;;19.83;9.77;;;;;;;;;;5091570;28;20043;-73
2022/01/09 11:07:54;;;;;;;17.98;9.88;;;;;;;;;;5092029;28;20480;-72
2022/01/09 11:10:59;;;;;;;19.92;9.90;;;;;;;;;;5079476;28;20639;-72
2022/01/09 11:14:07;;;;;;;20.30;9.77;;;;;;;;;;5092099;28;20495;-72
2022/01/09 11:17:11;;;;;;;15.73;8.02;;;;;;;;;;5091858;28;20040;-72
2022/01/09 11:20:17;;;;;;;15.25;8.52;;;;;;;;;;5079664;28;20032;-72
2022/01/09 11:23:21;;;;;;;15.07;7.63;;;;;;;;;;5091831;28;20039;-72
2022/01/09 11:26:33;;;;;;;14.05;7.40;;;;;;;;;;5091975;28;20044;-72
2022/01/09 11:29:53;;;;;;;21.23;8.98;;;;;;;;;;5091876;28;20055;-72
2022/01/09 11:33:00;;;;;;;18.30;9.82;;;;;;;;;;5079517;28;20497;-72
2022/01/09 11:36:21;;;;;;;19.30;9.40;;;;;;;;;;5091481;28;20494;-72
2022/01/09 11:39:35;;;;;;;15.53;8.17;;;;;;;;;;5091429;28;20043;-72
2022/01/09 11:42:58;;;;;;;18.48;8.45;;;;;;;;;;5091672;28;20274;-72
2022/01/09 11:46:03;;;;;;;16.23;9.07;;;;;;;;;;5091218;28;20364;-72
2022/01/09 11:49:07;;;;;;;19.52;8.77;;;;;;;;;;5078789;28;20036;-72
2022/01/09 11:52:11;;;;;;;19.20;9.27;;;;;;;;;;5091519;28;20028;-73
2022/01/09 11:55:33;;;;;;;17.77;9.90;;;;;;;;;;5091623;28;20035;-72
2022/01/09 11:58:40;;;;;;;17.08;10.75;;;;;;;;;;5091301;28;20056;-72
2022/01/09 12:01:46;;;;;;;22.83;13.90;;;;;;;;;;5090505;28;20400;-72
2022/01/09 12:04:50;;;;;;;30.13;16.50;;;;;;;;;;5091016;28;20043;-72
2022/01/09 12:07:54;;;;;;;23.92;13.80;;;;;;;;;;5091125;28;20043;-72
2022/01/09 12:10:59;;;;;;;24.98;12.63;;;;;;;;;;5091486;28;20043;-73
2022/01/09 12:14:03;;;;;;;20.88;12.07;;;;;;;;;;5091116;28;20039;-72
2022/01/09 12:17:28;;;;;;;25.33;13.75;;;;;;;;;;5078991;28;20522;-73
2022/01/09 12:20:38;;;;;;;33.13;14.77;;;;;;;;;;5095398;28;20039;-73
2022/01/09 12:23:42;;;;;;;22.52;12.02;;;;;;;;;;5091037;28;20395;-73
2022/01/09 12:26:47;;;;;;;17.52;10.20;;;;;;;;;;5091211;28;20070;-73
2022/01/09 12:29:51;;;;;;;16.08;9.88;;;;;;;;;;5091319;28;20051;-72
2022/01/09 12:32:56;;;;;;;20.67;10.63;;;;;;;;;;5078646;28;20379;-73
2022/01/09 12:36:18;;;;;;;18.02;11.00;;;;;;;;;;5078739;28;20051;-72
2022/01/09 12:39:22;;;;;;;19.17;11.10;;;;;;;;;;5049872;28;20064;-73
2022/01/09 12:42:27;;;;;;;19.83;11.23;;;;;;;;;;5050946;28;20052;-72
2022/01/09 12:45:43;;;;;;;28.85;17.25;;;;;;;;;;5051331;28;20047;-72
2022/01/09 12:48:51;;;;;;;24.63;12.75;;;;;;;;;;5050796;28;20116;-72
2022/01/09 12:52:00;;;;;;;21.70;13.27;;;;;;;;;;5050186;28;20052;-72
2022/01/09 12:55:08;;;;;;;21.83;13.52;;;;;;;;;;5049927;28;20389;-72
2022/01/09 12:58:21;;;;;;;24.05;13.55;;;;;;;;;;5051024;28;20400;-72
2022/01/09 13:01:27;;;;;;;26.63;16.58;;;;;;;;;;5054543;28;20048;-73
2022/01/09 13:04:34;;;;;;;29.42;15.57;;;;;;;;;;5054572;28;20040;-72
2022/01/09 13:07:39;;;;;;;27.73;15.55;;;;;;;;;;5054680;28;20036;-72
2022/01/09 13:10:43;;;;;;;27.42;14.68;;;;;;;;;;5054536;28;20055;-72
2022/01/09 13:13:49;;;;;;;20.88;13.55;;;;;;;;;;5054591;28;20052;-72
2022/01/09 13:16:53;;;;;;;28.98;15.13;;;;;;;;;;5053572;28;20047;-73
2022/01/09 13:19:58;;;;;;;24.63;15.00;;;;;;;;;;5054083;28;20052;-72
2022/01/09 13:23:10;;;;;;;27.60;14.82;;;;;;;;;;5053585;28;20044;-72
2022/01/09 13:26:16;;;;;;;19.52;11.90;;;;;;;;;;5054417;28;20048;-72
2022/01/09 13:29:23;;;;;;;18.40;11.05;;;;;;;;;;5054220;28;20040;-72
2022/01/09 13:32:28;;;;;;;17.98;10.02;;;;;;;;;;5054233;28;20051;-72
2022/01/09 13:35:32;;;;;;;21.35;12.27;;;;;;;;;;5053408;28;20063;-72
2022/01/09 13:38:36;;;;;;;16.25;10.25;;;;;;;;;;5053763;28;20056;-72
2022/01/09 13:41:42;;;;;;;21.95;10.57;;;;;;;;;;5054045;28;20040;-72
2022/01/09 13:45:00;;;;;;;15.60;9.30;;;;;;;;;;5053767;28;20044;-72
2022/01/09 13:48:05;;;;;;;20.15;11.07;;;;;;;;;;5052944;28;20056;-72
2022/01/09 13:51:09;;;;;;;20.45;12.02;;;;;;;;;;5053991;28;20052;-72
2022/01/09 13:54:15;;;;;;;28.50;15.05;;;;;;;;;;5053617;28;20578;-72
2022/01/09 13:57:25;;;;;;;26.90;15.32;;;;;;;;;;5053847;28;20043;-72
2022/01/09 14:00:30;;;;;;;27.48;15.20;;;;;;;;;;5053632;28;20071;-72
2022/01/09 14:03:35;;;;;;;25.02;15.23;;;;;;;;;;5052614;28;20044;-72
2022/01/09 14:06:39;;;;;;;24.77;15.48;;;;;;;;;;5053288;28;20048;-72
2022/01/09 14:09:44;;;;;;;26.60;15.23;;;;;;;;;;5053032;28;20495;-72
2022/01/09 14:12:49;;;;;;;23.40;15.57;;;;;;;;;;5053466;28;20388;-72
2022/01/09 14:16:07;;;;;;;29.42;16.33;;;;;;;;;;5053345;28;20044;-72
2022/01/09 14:19:11;;;;;;;25.98;16.48;;;;;;;;;;5052148;28;20056;-72
2022/01/09 14:22:15;;;;;;;27.38;17.60;;;;;;;;;;5053093;28;20055;-72
2022/01/09 14:25:29;;;;;;;26.80;17.73;;;;;;;;;;5053222;28;20048;-72
2022/01/09 14:28:33;;;;;;;29.83;19.73;;;;;;;;;;5053055;28;20086;-72
2022/01/09 14:31:37;;;;;;;31.40;20.52;;;;;;;;;;5051941;28;20032;-72
2022/01/09 14:34:42;;;;;;;29.13;19.13;;;;;;;;;;5052354;28;20044;-72
2022/01/09 14:37:46;;;;;;;27.25;18.67;;;;;;;;;;5065394;28;20052;-72
2022/01/09 14:40:55;;;;;;;30.05;19.48;;;;;;;;;;5072992;28;20048;-71
2022/01/09 14:44:00;;;;;;;30.50;19.40;;;;;;;;;;5072684;28;20040;-72
2022/01/09 14:47:04;;;;;;;37.05;20.75;;;;;;;;;;5072750;28;20138;-72
2022/01/09 14:50:09;;;;;;;35.20;22.58;;;;;;;;;;5072830;28;20071;-72
2022/01/09 14:53:13;;;;;;;40.30;26.05;;;;;;;;;;5071732;28;20044;-72
2022/01/09 14:56:17;;;;;;;36.10;22.10;;;;;;;;;;5071789;28;20044;-72
2022/01/09 14:59:22;;;;;;;31.67;19.60;;;;;;;;;;5072396;28;20047;-72
2022/01/09 15:02:26;;;;;;;28.17;18.95;;;;;;;;;;5072455;28;20039;-72
2022/01/09 15:05:30;;;;;;;27.48;18.25;;;;;;;;;;5072640;28;20052;-72
2022/01/09 15:08:34;;;;;;;30.08;17.38;;;;;;;;;;5072201;28;20045;-72
2022/01/09 15:11:39;;;;;;;26.58;17.17;;;;;;;;;;5072271;28;20039;-72
2022/01/09 15:14:43;;;;;;;27.00;18.20;;;;;;;;;;5072340;28;20491;-72
2022/01/09 15:17:48;;;;;;;29.27;18.88;;;;;;;;;;5072222;28;20052;-72
2022/01/09 15:20:52;;;;;;;29.27;19.42;;;;;;;;;;5082278;28;20047;-72
2022/01/09 15:23:57;;;;;;;26.38;17.65;;;;;;;;;;5082879;28;20103;-72
2022/01/09 15:27:01;;;;;;;21.05;14.50;;;;;;;;;;5071201;28;20047;-72
2022/01/09 15:30:06;;;;;;;24.77;15.18;;;;;;;;;;5071839;28;20047;-72
2022/01/09 15:33:10;;;;;;;24.80;16.30;;;;;;;;;;5071657;28;20044;-70
2022/01/09 15:36:16;;;;;;;25.25;15.88;;;;;;;;;;5072845;28;20048;-72
2022/01/09 15:39:20;;;;;;;19.88;13.52;;;;;;;;;;5091603;28;20063;-71
2022/01/09 15:42:25;;;;;;;22.98;13.60;;;;;;;;;;5090609;28;20043;-72
2022/01/09 15:45:29;;;;;;;21.58;13.25;;;;;;;;;;5091787;28;20101;-72
2022/01/09 15:48:33;;;;;;;20.75;13.38;;;;;;;;;;5091709;28;20043;-72
2022/01/09 15:51:38;;;;;;;29.73;16.95;;;;;;;;;;5079387;28;20047;-72
2022/01/09 15:54:42;;;;;;;25.25;14.48;;;;;;;;;;5091545;28;20486;-72
2022/01/09 15:57:46;;;;;;;21.27;12.23;;;;;;;;;;5079123;28;20078;-72
2022/01/09 16:00:54;;;;;;;21.95;12.75;;;;;;;;;;5091848;28;20047;-72
2022/01/09 16:03:58;;;;;;;17.23;8.55;;;;;;;;;;5091567;28;20035;-72
2022/01/09 16:07:03;;;;;;;27.55;15.57;;;;;;;;;;5067750;28;20048;-72
2022/01/09 16:10:08;;;;;;;118.75;55.38;;;;;;;;;;5078933;28;20038;-72
2022/01/09 16:13:12;;;;;;;44.13;27.30;;;;;;;;;;5078493;28;20047;-72
2022/01/09 16:16:16;;;;;;;29.88;18.73;;;;;;;;;;5090694;28;20043;-72
2022/01/09 16:19:21;;;;;;;22.10;12.75;;;;;;;;;;5091172;28;20047;-72
2022/01/09 16:22:26;;;;;;;22.98;11.02;;;;;;;;;;5091063;28;20494;-72
2022/01/09 16:25:30;;;;;;;20.05;10.60;;;;;;;;;;5091152;28;20043;-72
2022/01/09 16:28:35;;;;;;;25.33;10.45;;;;;;;;;;5078654;28;20043;-72
2022/01/09 16:31:38;;;;;;;20.92;11.10;;;;;;;;;;5078471;28;20043;-72
2022/01/09 16:34:43;;;;;;;17.52;10.85;;;;;;;;;;5078635;28;20502;-72
2022/01/09 16:37:47;;;;;;;17.95;11.05;;;;;;;;;;5090242;28;20063;-72
2022/01/09 16:40:53;;;;;;;14.43;9.68;;;;;;;;;;5078277;28;20043;-72
2022/01/09 16:43:57;;;;;;;18.63;10.02;;;;;;;;;;5091036;28;20043;-71
2022/01/09 16:47:02;;;;;;;13.95;7.30;;;;;;;;;;5078466;28;20496;-72
2022/01/09 16:50:06;;;;;;;15.45;7.50;;;;;;;;;;5078444;28;20036;-71
2022/01/09 16:53:11;;;;;;;22.23;6.40;;;;;;;;;;5091001;28;20036;-72
2022/01/09 16:56:15;;;;;;;19.45;7.72;;;;;;;;;;5078479;28;20044;-71
2022/01/09 16:59:19;;;;;;;13.40;6.40;;;;;;;;;;5090724;28;20504;-72
2022/01/09 17:02:24;;;;;;;14.55;7.35;;;;;;;;;;5090478;28;20381;-71
2022/01/09 17:05:28;;;;;;;15.40;7.88;;;;;;;;;;5078144;28;20044;-71
2022/01/09 17:08:38;;;;;;;19.15;7.88;;;;;;;;;;5090772;28;20036;-71
2022/01/09 17:11:42;;;;;;;25.95;12.27;;;;;;;;;;5090709;28;20467;-71
2022/01/09 17:14:46;;;;;;;41.25;14.32;;;;;;;;;;5090866;28;20039;-72
2022/01/09 17:17:50;;;;;;;36.70;18.67;;;;;;;;;;5090544;28;20039;-72
2022/01/09 17:20:55;;;;;;;27.70;14.82;;;;;;;;;;5077762;28;20399;-72
2022/01/09 17:23:59;;;;;;;22.45;14.07;;;;;;;;;;5090684;28;20045;-72
2022/01/09 17:27:03;;;;;;;26.70;15.40;;;;;;;;;;5090780;28;20043;-72
2022/01/09 17:30:08;;;;;;;24.50;17.33;;;;;;;;;;5077916;28;20043;-71
2022/01/09 17:33:13;;;;;;;25.65;16.00;;;;;;;;;;5066493;28;20058;-72
2022/01/09 17:36:19;;;;;;;20.40;13.73;;;;;;;;;;5077733;28;20047;-72
2022/01/09 17:39:23;;;;;;;20.92;12.25;;;;;;;;;;5077852;28;20051;-72
2022/01/09 17:42:27;;;;;;;23.23;12.93;;;;;;;;;;5077906;28;20047;-72
2022/01/09 17:45:31;;;;;;;26.35;14.40;;;;;;;;;;5068867;28;20043;-72
2022/01/09 17:48:36;;;;;;;25.08;14.85;;;;;;;;;;5094240;28;20503;-72
2022/01/09 17:51:41;;;;;;;25.13;13.43;;;;;;;;;;5081230;28;20047;-72
2022/01/09 17:54:46;;;;;;;26.73;15.02;;;;;;;;;;5081021;28;20031;-72
2022/01/09 17:57:50;;;;;;;21.95;11.85;;;;;;;;;;5093662;28;20391;-72
2022/01/09 18:00:55;;;;;;;17.00;9.27;;;;;;;;;;5081267;28;20070;-72